sensor_id;sensor_type;location;lat;lon;timestamp;P1;durP1;ratioP1;P2;durP2;ratioP2
20084;SDS011;10202;48.474;9.138;2023-02-28T00:01:35;4.60;;;3.30;;
20084;SDS011;10202;48.474;9.138;2023-02-28T00:04:05;4.60;;;3.43;;
20084;SDS011;10202;48.474;9.138;2023-02-28T00:06:34;6.30;;;3.50;;
20084;SDS011;10202;48.474;9.138;2023-02-28T00:08:59;4.63;;;3.33;;
20084;SDS011;10202;48.474;9.138;2023-02-28T00:11:30;5.10;;;3.37;;
20084;SDS011;10202;48.474;9.138;2023-02-28T00:13:57;4.87;;;3.43;;
20084;SDS011;10202;48.474;9.138;2023-02-28T00:16:26;4.73;;;3.20;;
20084;SDS011;10202;48.474;9.138;2023-02-28T00:18:52;5.03;;;3.47;;
20084;SDS011;10202;48.474;9.138;2023-02-28T00:21:19;4.03;;;3.33;;
20084;SDS011;10202;48.474;9.138;2023-02-28T00:23:48;5.60;;;3.57;;
20084;SDS011;10202;48.474;9.138;2023-02-28T00:26:22;4.90;;;3.40;;
20084;SDS011;10202;48.474;9.138;2023-02-28T00:28:51;5.00;;;3.40;;
20084;SDS011;10202;48.474;9.138;2023-02-28T00:31:17;5.47;;;3.60;;
20084;SDS011;10202;48.474;9.138;2023-02-28T00:33:43;4.17;;;3.40;;
20084;SDS011;10202;48.474;9.138;2023-02-28T00:36:10;6.93;;;3.70;;
20084;SDS011;10202;48.474;9.138;2023-02-28T00:38:41;5.50;;;3.43;;
20084;SDS011;10202;48.474;9.138;2023-02-28T00:41:07;4.33;;;3.00;;
20084;SDS011;10202;48.474;9.138;2023-02-28T00:43:33;10.03;;;3.67;;
20084;SDS011;10202;48.474;9.138;2023-02-28T00:46:05;5.17;;;3.20;;
20084;SDS011;10202;48.474;9.138;2023-02-28T00:48:32;5.23;;;3.40;;
20084;SDS011;10202;48.474;9.138;2023-02-28T00:51:00;4.90;;;3.37;;
20084;SDS011;10202;48.474;9.138;2023-02-28T00:53:26;7.53;;;3.40;;
20084;SDS011;10202;48.474;9.138;2023-02-28T00:55:51;4.13;;;3.30;;
20084;SDS011;10202;48.474;9.138;2023-02-28T00:58:17;4.67;;;3.27;;
20084;SDS011;10202;48.474;9.138;2023-02-28T01:00:45;6.67;;;3.50;;
20084;SDS011;10202;48.474;9.138;2023-02-28T01:03:17;7.43;;;3.40;;
20084;SDS011;10202;48.474;9.138;2023-02-28T01:05:49;5.50;;;3.33;;
20084;SDS011;10202;48.474;9.138;2023-02-28T01:08:16;4.73;;;3.40;;
20084;SDS011;10202;48.474;9.138;2023-02-28T01:10:46;4.30;;;3.30;;
20084;SDS011;10202;48.474;9.138;2023-02-28T01:13:15;5.10;;;3.57;;
20084;SDS011;10202;48.474;9.138;2023-02-28T01:15:45;4.67;;;3.40;;
20084;SDS011;10202;48.474;9.138;2023-02-28T01:18:20;8.70;;;3.30;;
20084;SDS011;10202;48.474;9.138;2023-02-28T01:20:51;4.97;;;3.40;;
20084;SDS011;10202;48.474;9.138;2023-02-28T01:23:18;4.37;;;3.10;;
20084;SDS011;10202;48.474;9.138;2023-02-28T01:25:45;6.80;;;3.27;;
20084;SDS011;10202;48.474;9.138;2023-02-28T01:28:15;4.53;;;3.37;;
20084;SDS011;10202;48.474;9.138;2023-02-28T01:30:41;4.83;;;3.10;;
20084;SDS011;10202;48.474;9.138;2023-02-28T01:33:07;5.30;;;3.60;;
20084;SDS011;10202;48.474;9.138;2023-02-28T01:35:35;4.73;;;3.33;;
20084;SDS011;10202;48.474;9.138;2023-02-28T01:38:09;5.23;;;3.20;;
20084;SDS011;10202;48.474;9.138;2023-02-28T01:40:37;5.93;;;3.70;;
20084;SDS011;10202;48.474;9.138;2023-02-28T01:43:17;4.10;;;2.70;;
20084;SDS011;10202;48.474;9.138;2023-02-28T01:45:50;5.37;;;3.40;;
20084;SDS011;10202;48.474;9.138;2023-02-28T01:48:24;4.53;;;3.30;;
20084;SDS011;10202;48.474;9.138;2023-02-28T01:50:57;4.97;;;3.40;;
20084;SDS011;10202;48.474;9.138;2023-02-28T01:53:29;6.63;;;3.57;;
20084;SDS011;10202;48.474;9.138;2023-02-28T01:56:06;5.80;;;3.37;;
20084;SDS011;10202;48.474;9.138;2023-02-28T01:58:37;4.20;;;3.20;;
20084;SDS011;10202;48.474;9.138;2023-02-28T02:01:03;6.23;;;3.20;;
20084;SDS011;10202;48.474;9.138;2023-02-28T02:03:34;6.30;;;3.30;;
20084;SDS011;10202;48.474;9.138;2023-02-28T02:06:01;4.70;;;3.43;;
20084;SDS011;10202;48.474;9.138;2023-02-28T02:08:29;5.83;;;3.43;;
20084;SDS011;10202;48.474;9.138;2023-02-28T02:11:02;6.13;;;3.33;;
20084;SDS011;10202;48.474;9.138;2023-02-28T02:27:20;5.30;;;3.20;;
20084;SDS011;10202;48.474;9.138;2023-02-28T02:38:50;5.40;;;3.40;;
20084;SDS011;10202;48.474;9.138;2023-02-28T02:41:53;7.97;;;3.90;;
20084;SDS011;10202;48.474;9.138;2023-02-28T02:47:27;4.50;;;3.23;;
20084;SDS011;10202;48.474;9.138;2023-02-28T02:49:57;4.97;;;3.47;;
20084;SDS011;10202;48.474;9.138;2023-02-28T02:52:31;6.83;;;3.67;;
20084;SDS011;10202;48.474;9.138;2023-02-28T02:55:06;4.27;;;3.47;;
20084;SDS011;10202;48.474;9.138;2023-02-28T02:57:43;5.87;;;3.40;;
20084;SDS011;10202;48.474;9.138;2023-02-28T03:00:22;6.13;;;3.70;;
20084;SDS011;10202;48.474;9.138;2023-02-28T03:02:54;5.70;;;3.53;;
20084;SDS011;10202;48.474;9.138;2023-02-28T03:05:23;9.07;;;4.07;;
20084;SDS011;10202;48.474;9.138;2023-02-28T03:07:55;5.13;;;3.70;;
20084;SDS011;10202;48.474;9.138;2023-02-28T03:15:57;4.53;;;3.50;;
20084;SDS011;10202;48.474;9.138;2023-02-28T03:24:56;5.90;;;3.60;;
20084;SDS011;10202;48.474;9.138;2023-02-28T03:30:26;5.13;;;3.87;;
20084;SDS011;10202;48.474;9.138;2023-02-28T03:35:34;4.73;;;3.70;;
20084;SDS011;10202;48.474;9.138;2023-02-28T03:38:20;6.27;;;3.90;;
20084;SDS011;10202;48.474;9.138;2023-02-28T03:41:01;6.63;;;3.80;;
20084;SDS011;10202;48.474;9.138;2023-02-28T03:43:35;7.63;;;4.23;;
20084;SDS011;10202;48.474;9.138;2023-02-28T03:46:10;7.60;;;4.43;;
20084;SDS011;10202;48.474;9.138;2023-02-28T03:48:46;5.73;;;3.83;;
20084;SDS011;10202;48.474;9.138;2023-02-28T03:51:35;5.97;;;3.90;;
20084;SDS011;10202;48.474;9.138;2023-02-28T03:54:05;4.70;;;3.60;;
20084;SDS011;10202;48.474;9.138;2023-02-28T03:56:39;4.90;;;3.77;;
20084;SDS011;10202;48.474;9.138;2023-02-28T03:59:13;5.40;;;4.10;;
20084;SDS011;10202;48.474;9.138;2023-02-28T04:02:10;6.20;;;4.00;;
20084;SDS011;10202;48.474;9.138;2023-02-28T04:04:41;7.67;;;4.27;;
20084;SDS011;10202;48.474;9.138;2023-02-28T04:07:13;9.30;;;4.40;;
20084;SDS011;10202;48.474;9.138;2023-02-28T04:09:39;5.90;;;4.30;;
20084;SDS011;10202;48.474;9.138;2023-02-28T04:12:10;8.13;;;4.33;;
20084;SDS011;10202;48.474;9.138;2023-02-28T04:14:36;6.57;;;4.50;;
20084;SDS011;10202;48.474;9.138;2023-02-28T04:17:01;6.57;;;3.83;;
20084;SDS011;10202;48.474;9.138;2023-02-28T04:19:30;4.77;;;3.77;;
20084;SDS011;10202;48.474;9.138;2023-02-28T04:21:55;6.30;;;4.33;;
20084;SDS011;10202;48.474;9.138;2023-02-28T04:24:25;5.33;;;4.00;;
20084;SDS011;10202;48.474;9.138;2023-02-28T04:26:54;5.63;;;4.30;;
20084;SDS011;10202;48.474;9.138;2023-02-28T04:29:25;6.47;;;4.50;;
20084;SDS011;10202;48.474;9.138;2023-02-28T04:31:57;6.60;;;4.33;;
20084;SDS011;10202;48.474;9.138;2023-02-28T04:34:24;5.77;;;4.00;;
20084;SDS011;10202;48.474;9.138;2023-02-28T04:36:54;6.30;;;4.20;;
20084;SDS011;10202;48.474;9.138;2023-02-28T04:39:23;7.40;;;4.33;;
20084;SDS011;10202;48.474;9.138;2023-02-28T04:41:52;5.87;;;4.40;;
20084;SDS011;10202;48.474;9.138;2023-02-28T04:44:17;7.30;;;4.30;;
20084;SDS011;10202;48.474;9.138;2023-02-28T04:46:43;7.60;;;4.77;;
20084;SDS011;10202;48.474;9.138;2023-02-28T04:49:12;5.77;;;3.87;;
20084;SDS011;10202;48.474;9.138;2023-02-28T04:51:38;7.10;;;4.53;;
20084;SDS011;10202;48.474;9.138;2023-02-28T04:54:07;5.83;;;4.03;;
20084;SDS011;10202;48.474;9.138;2023-02-28T04:56:38;7.33;;;4.50;;
20084;SDS011;10202;48.474;9.138;2023-02-28T04:59:03;6.93;;;4.27;;
20084;SDS011;10202;48.474;9.138;2023-02-28T05:01:30;6.60;;;4.67;;
20084;SDS011;10202;48.474;9.138;2023-02-28T05:04:03;9.17;;;4.47;;
20084;SDS011;10202;48.474;9.138;2023-02-28T05:06:36;6.77;;;4.80;;
20084;SDS011;10202;48.474;9.138;2023-02-28T05:09:04;5.70;;;4.20;;
20084;SDS011;10202;48.474;9.138;2023-02-28T05:11:30;9.00;;;4.97;;
20084;SDS011;10202;48.474;9.138;2023-02-28T05:14:01;6.37;;;4.37;;
20084;SDS011;10202;48.474;9.138;2023-02-28T05:16:34;7.03;;;4.40;;
20084;SDS011;10202;48.474;9.138;2023-02-28T05:18:59;7.73;;;4.67;;
20084;SDS011;10202;48.474;9.138;2023-02-28T05:21:29;5.73;;;4.40;;
20084;SDS011;10202;48.474;9.138;2023-02-28T05:24:19;6.93;;;5.07;;
20084;SDS011;10202;48.474;9.138;2023-02-28T05:26:50;7.70;;;5.37;;
20084;SDS011;10202;48.474;9.138;2023-02-28T05:29:21;9.53;;;5.33;;
20084;SDS011;10202;48.474;9.138;2023-02-28T05:31:47;10.63;;;6.70;;
20084;SDS011;10202;48.474;9.138;2023-02-28T05:34:17;17.00;;;8.30;;
20084;SDS011;10202;48.474;9.138;2023-02-28T05:36:43;15.60;;;9.67;;
20084;SDS011;10202;48.474;9.138;2023-02-28T05:39:10;19.77;;;10.90;;
20084;SDS011;10202;48.474;9.138;2023-02-28T05:41:41;13.17;;;9.07;;
20084;SDS011;10202;48.474;9.138;2023-02-28T05:44:09;10.83;;;6.50;;
20084;SDS011;10202;48.474;9.138;2023-02-28T05:46:35;9.17;;;6.57;;
20084;SDS011;10202;48.474;9.138;2023-02-28T05:49:03;9.47;;;5.80;;
20084;SDS011;10202;48.474;9.138;2023-02-28T05:51:31;10.07;;;5.80;;
20084;SDS011;10202;48.474;9.138;2023-02-28T05:54:01;7.13;;;5.20;;
20084;SDS011;10202;48.474;9.138;2023-02-28T05:56:27;10.20;;;5.57;;
20084;SDS011;10202;48.474;9.138;2023-02-28T05:59:02;9.53;;;6.03;;
20084;SDS011;10202;48.474;9.138;2023-02-28T06:01:41;8.00;;;5.47;;
20084;SDS011;10202;48.474;9.138;2023-02-28T06:04:18;8.40;;;5.63;;
20084;SDS011;10202;48.474;9.138;2023-02-28T06:06:48;10.03;;;5.87;;
20084;SDS011;10202;48.474;9.138;2023-02-28T06:09:14;6.17;;;4.60;;
20084;SDS011;10202;48.474;9.138;2023-02-28T06:11:42;10.00;;;5.97;;
20084;SDS011;10202;48.474;9.138;2023-02-28T06:14:12;9.17;;;5.93;;
20084;SDS011;10202;48.474;9.138;2023-02-28T06:16:46;8.47;;;5.90;;
20084;SDS011;10202;48.474;9.138;2023-02-28T06:19:12;9.80;;;5.87;;
20084;SDS011;10202;48.474;9.138;2023-02-28T06:21:51;8.57;;;5.93;;
20084;SDS011;10202;48.474;9.138;2023-02-28T06:24:20;10.60;;;6.23;;
20084;SDS011;10202;48.474;9.138;2023-02-28T06:26:50;17.13;;;8.00;;
20084;SDS011;10202;48.474;9.138;2023-02-28T06:29:21;9.90;;;6.40;;
20084;SDS011;10202;48.474;9.138;2023-02-28T06:31:52;11.87;;;6.87;;
20084;SDS011;10202;48.474;9.138;2023-02-28T06:34:25;12.27;;;6.87;;
20084;SDS011;10202;48.474;9.138;2023-02-28T06:36:58;16.97;;;7.70;;
20084;SDS011;10202;48.474;9.138;2023-02-28T06:39:27;10.30;;;7.10;;
20084;SDS011;10202;48.474;9.138;2023-02-28T06:41:54;12.57;;;7.00;;
20084;SDS011;10202;48.474;9.138;2023-02-28T06:44:20;11.23;;;6.63;;
20084;SDS011;10202;48.474;9.138;2023-02-28T06:46:52;10.00;;;6.17;;
20084;SDS011;10202;48.474;9.138;2023-02-28T06:49:17;9.90;;;6.07;;
20084;SDS011;10202;48.474;9.138;2023-02-28T06:51:47;13.63;;;6.87;;
20084;SDS011;10202;48.474;9.138;2023-02-28T06:54:13;11.63;;;7.10;;
20084;SDS011;10202;48.474;9.138;2023-02-28T06:56:39;11.93;;;7.13;;
20084;SDS011;10202;48.474;9.138;2023-02-28T06:59:09;9.73;;;6.00;;
20084;SDS011;10202;48.474;9.138;2023-02-28T07:01:40;9.90;;;6.23;;
20084;SDS011;10202;48.474;9.138;2023-02-28T07:04:08;9.27;;;6.07;;
20084;SDS011;10202;48.474;9.138;2023-02-28T07:06:37;11.87;;;6.57;;
20084;SDS011;10202;48.474;9.138;2023-02-28T07:09:05;9.03;;;6.60;;
20084;SDS011;10202;48.474;9.138;2023-02-28T07:11:31;13.47;;;8.20;;
20084;SDS011;10202;48.474;9.138;2023-02-28T07:14:06;10.90;;;7.30;;
20084;SDS011;10202;48.474;9.138;2023-02-28T07:16:35;12.60;;;7.63;;
20084;SDS011;10202;48.474;9.138;2023-02-28T07:19:00;11.97;;;7.17;;
20084;SDS011;10202;48.474;9.138;2023-02-28T07:21:28;12.50;;;6.10;;
20084;SDS011;10202;48.474;9.138;2023-02-28T07:23:56;10.70;;;7.50;;
20084;SDS011;10202;48.474;9.138;2023-02-28T07:26:22;11.87;;;7.00;;
20084;SDS011;10202;48.474;9.138;2023-02-28T07:28:52;10.77;;;6.97;;
20084;SDS011;10202;48.474;9.138;2023-02-28T07:31:19;11.87;;;7.07;;
20084;SDS011;10202;48.474;9.138;2023-02-28T07:33:45;13.93;;;7.77;;
20084;SDS011;10202;48.474;9.138;2023-02-28T07:36:15;11.93;;;7.20;;
20084;SDS011;10202;48.474;9.138;2023-02-28T07:38:45;10.43;;;7.60;;
20084;SDS011;10202;48.474;9.138;2023-02-28T07:41:17;13.17;;;7.83;;
20084;SDS011;10202;48.474;9.138;2023-02-28T07:43:46;14.77;;;7.97;;
20084;SDS011;10202;48.474;9.138;2023-02-28T07:46:13;24.27;;;8.10;;
20084;SDS011;10202;48.474;9.138;2023-02-28T07:48:45;10.43;;;7.50;;
20084;SDS011;10202;48.474;9.138;2023-02-28T07:51:13;12.60;;;8.33;;
20084;SDS011;10202;48.474;9.138;2023-02-28T07:53:39;13.50;;;7.93;;
20084;SDS011;10202;48.474;9.138;2023-02-28T07:56:07;13.27;;;7.97;;
20084;SDS011;10202;48.474;9.138;2023-02-28T07:58:33;12.93;;;7.70;;
20084;SDS011;10202;48.474;9.138;2023-02-28T08:01:05;16.80;;;9.00;;
20084;SDS011;10202;48.474;9.138;2023-02-28T08:03:37;13.90;;;8.17;;
20084;SDS011;10202;48.474;9.138;2023-02-28T08:06:07;11.43;;;7.40;;
20084;SDS011;10202;48.474;9.138;2023-02-28T08:08:44;10.90;;;7.23;;
20084;SDS011;10202;48.474;9.138;2023-02-28T08:11:10;13.90;;;8.20;;
20084;SDS011;10202;48.474;9.138;2023-02-28T08:13:41;13.77;;;8.47;;
20084;SDS011;10202;48.474;9.138;2023-02-28T08:16:10;13.57;;;8.43;;
20084;SDS011;10202;48.474;9.138;2023-02-28T08:18:40;13.80;;;8.07;;
20084;SDS011;10202;48.474;9.138;2023-02-28T08:21:09;12.33;;;7.93;;
20084;SDS011;10202;48.474;9.138;2023-02-28T08:23:37;14.57;;;8.80;;
20084;SDS011;10202;48.474;9.138;2023-02-28T08:26:09;13.27;;;7.87;;
20084;SDS011;10202;48.474;9.138;2023-02-28T08:28:37;13.57;;;8.60;;
20084;SDS011;10202;48.474;9.138;2023-02-28T08:31:11;13.57;;;8.40;;
20084;SDS011;10202;48.474;9.138;2023-02-28T08:33:39;16.17;;;8.53;;
20084;SDS011;10202;48.474;9.138;2023-02-28T08:36:06;13.83;;;8.60;;
20084;SDS011;10202;48.474;9.138;2023-02-28T08:38:37;12.53;;;8.33;;
20084;SDS011;10202;48.474;9.138;2023-02-28T08:41:06;13.57;;;8.20;;
20084;SDS011;10202;48.474;9.138;2023-02-28T08:43:35;15.47;;;8.73;;
20084;SDS011;10202;48.474;9.138;2023-02-28T08:46:04;12.60;;;8.70;;
20084;SDS011;10202;48.474;9.138;2023-02-28T08:48:33;14.80;;;8.67;;
20084;SDS011;10202;48.474;9.138;2023-02-28T08:51:08;14.37;;;9.37;;
20084;SDS011;10202;48.474;9.138;2023-02-28T08:53:53;13.37;;;8.37;;
20084;SDS011;10202;48.474;9.138;2023-02-28T08:56:26;14.67;;;8.70;;
20084;SDS011;10202;48.474;9.138;2023-02-28T08:58:57;12.97;;;9.13;;
20084;SDS011;10202;48.474;9.138;2023-02-28T09:01:26;14.60;;;8.70;;
20084;SDS011;10202;48.474;9.138;2023-02-28T09:03:57;15.07;;;9.43;;
20084;SDS011;10202;48.474;9.138;2023-02-28T09:06:26;12.10;;;8.57;;
20084;SDS011;10202;48.474;9.138;2023-02-28T09:08:52;14.10;;;8.93;;
20084;SDS011;10202;48.474;9.138;2023-02-28T09:11:24;14.27;;;9.40;;
20084;SDS011;10202;48.474;9.138;2023-02-28T09:13:54;13.23;;;8.77;;
20084;SDS011;10202;48.474;9.138;2023-02-28T09:16:20;13.80;;;8.77;;
20084;SDS011;10202;48.474;9.138;2023-02-28T09:18:51;12.23;;;8.73;;
20084;SDS011;10202;48.474;9.138;2023-02-28T09:21:22;12.63;;;9.23;;
20084;SDS011;10202;48.474;9.138;2023-02-28T09:23:48;14.17;;;9.07;;
20084;SDS011;10202;48.474;9.138;2023-02-28T09:26:24;14.37;;;9.10;;
20084;SDS011;10202;48.474;9.138;2023-02-28T09:28:52;13.33;;;9.10;;
20084;SDS011;10202;48.474;9.138;2023-02-28T09:31:20;14.23;;;9.30;;
20084;SDS011;10202;48.474;9.138;2023-02-28T09:33:49;15.33;;;9.43;;
20084;SDS011;10202;48.474;9.138;2023-02-28T09:36:19;13.53;;;9.27;;
20084;SDS011;10202;48.474;9.138;2023-02-28T09:38:45;15.47;;;9.40;;
20084;SDS011;10202;48.474;9.138;2023-02-28T09:41:17;14.13;;;9.13;;
20084;SDS011;10202;48.474;9.138;2023-02-28T09:43:50;13.63;;;9.07;;
20084;SDS011;10202;48.474;9.138;2023-02-28T09:46:31;15.90;;;9.27;;
20084;SDS011;10202;48.474;9.138;2023-02-28T09:49:02;16.73;;;10.13;;
20084;SDS011;10202;48.474;9.138;2023-02-28T09:54:13;15.70;;;9.97;;
20084;SDS011;10202;48.474;9.138;2023-02-28T09:57:14;14.07;;;9.10;;
20084;SDS011;10202;48.474;9.138;2023-02-28T10:00:05;16.50;;;9.27;;
20084;SDS011;10202;48.474;9.138;2023-02-28T10:06:14;13.73;;;8.87;;
20084;SDS011;10202;48.474;9.138;2023-02-28T10:09:04;13.47;;;8.93;;
20084;SDS011;10202;48.474;9.138;2023-02-28T10:11:45;12.47;;;8.93;;
20084;SDS011;10202;48.474;9.138;2023-02-28T10:14:22;13.13;;;8.43;;
20084;SDS011;10202;48.474;9.138;2023-02-28T10:16:55;13.47;;;8.40;;
20084;SDS011;10202;48.474;9.138;2023-02-28T10:24:45;11.87;;;8.17;;
20084;SDS011;10202;48.474;9.138;2023-02-28T10:29:51;16.40;;;9.23;;
20084;SDS011;10202;48.474;9.138;2023-02-28T10:32:20;15.83;;;8.43;;
20084;SDS011;10202;48.474;9.138;2023-02-28T10:37:30;12.40;;;8.37;;
20084;SDS011;10202;48.474;9.138;2023-02-28T10:39:59;14.67;;;8.97;;
20084;SDS011;10202;48.474;9.138;2023-02-28T10:42:32;14.80;;;8.93;;
20084;SDS011;10202;48.474;9.138;2023-02-28T10:45:16;16.40;;;9.03;;
20084;SDS011;10202;48.474;9.138;2023-02-28T10:58:46;12.33;;;8.47;;
20084;SDS011;10202;48.474;9.138;2023-02-28T11:01:22;13.73;;;8.80;;
20084;SDS011;10202;48.474;9.138;2023-02-28T11:03:59;12.83;;;8.63;;
20084;SDS011;10202;48.474;9.138;2023-02-28T11:06:33;13.60;;;9.03;;
20084;SDS011;10202;48.474;9.138;2023-02-28T11:09:00;12.90;;;8.80;;
20084;SDS011;10202;48.474;9.138;2023-02-28T11:11:40;13.00;;;9.07;;
20084;SDS011;10202;48.474;9.138;2023-02-28T11:14:18;11.83;;;8.53;;
20084;SDS011;10202;48.474;9.138;2023-02-28T11:16:49;13.73;;;9.30;;
20084;SDS011;10202;48.474;9.138;2023-02-28T11:19:34;13.70;;;8.93;;
20084;SDS011;10202;48.474;9.138;2023-02-28T11:22:15;14.27;;;9.30;;
20084;SDS011;10202;48.474;9.138;2023-02-28T11:24:50;14.40;;;9.37;;
20084;SDS011;10202;48.474;9.138;2023-02-28T11:28:04;13.27;;;10.00;;
20084;SDS011;10202;48.474;9.138;2023-02-28T11:34:10;30.30;;;18.43;;
20084;SDS011;10202;48.474;9.138;2023-02-28T11:36:13;15.33;;;9.47;;
20084;SDS011;10202;48.474;9.138;2023-02-28T11:38:49;16.93;;;10.77;;
20084;SDS011;10202;48.474;9.138;2023-02-28T11:49:35;16.87;;;9.00;;
20084;SDS011;10202;48.474;9.138;2023-02-28T11:55:20;17.90;;;10.87;;
20084;SDS011;10202;48.474;9.138;2023-02-28T12:09:39;13.87;;;9.20;;
20084;SDS011;10202;48.474;9.138;2023-02-28T12:12:27;22.50;;;13.30;;
20084;SDS011;10202;48.474;9.138;2023-02-28T12:20:54;16.73;;;12.50;;
20084;SDS011;10202;48.474;9.138;2023-02-28T12:28:51;14.73;;;10.03;;
20084;SDS011;10202;48.474;9.138;2023-02-28T12:31:24;16.00;;;10.80;;
20084;SDS011;10202;48.474;9.138;2023-02-28T12:33:59;16.40;;;10.17;;
20084;SDS011;10202;48.474;9.138;2023-02-28T12:36:36;15.93;;;11.00;;
20084;SDS011;10202;48.474;9.138;2023-02-28T12:39:04;18.53;;;11.17;;
20084;SDS011;10202;48.474;9.138;2023-02-28T12:42:13;24.07;;;16.53;;
20084;SDS011;10202;48.474;9.138;2023-02-28T12:47:50;14.33;;;9.17;;
20084;SDS011;10202;48.474;9.138;2023-02-28T12:50:24;16.77;;;9.27;;
20084;SDS011;10202;48.474;9.138;2023-02-28T12:52:56;16.77;;;10.63;;
20084;SDS011;10202;48.474;9.138;2023-02-28T12:56:08;17.90;;;11.43;;
20084;SDS011;10202;48.474;9.138;2023-02-28T12:58:59;25.50;;;13.63;;
20084;SDS011;10202;48.474;9.138;2023-02-28T13:05:06;20.07;;;11.73;;
20084;SDS011;10202;48.474;9.138;2023-02-28T13:10:21;25.40;;;11.77;;
20084;SDS011;10202;48.474;9.138;2023-02-28T13:12:53;12.23;;;8.47;;
20084;SDS011;10202;48.474;9.138;2023-02-28T13:15:25;13.33;;;9.33;;
20084;SDS011;10202;48.474;9.138;2023-02-28T13:17:55;16.03;;;9.23;;
20084;SDS011;10202;48.474;9.138;2023-02-28T13:20:27;13.50;;;9.27;;
20084;SDS011;10202;48.474;9.138;2023-02-28T13:23:02;14.87;;;9.27;;
20084;SDS011;10202;48.474;9.138;2023-02-28T13:28:02;13.27;;;9.00;;
20084;SDS011;10202;48.474;9.138;2023-02-28T13:33:24;12.90;;;9.17;;
20084;SDS011;10202;48.474;9.138;2023-02-28T13:38:50;12.67;;;8.80;;
20084;SDS011;10202;48.474;9.138;2023-02-28T13:46:33;15.40;;;9.47;;
20084;SDS011;10202;48.474;9.138;2023-02-28T13:49:33;13.30;;;8.97;;
20084;SDS011;10202;48.474;9.138;2023-02-28T13:52:10;16.53;;;9.50;;
20084;SDS011;10202;48.474;9.138;2023-02-28T14:06:57;12.33;;;8.60;;
20084;SDS011;10202;48.474;9.138;2023-02-28T14:09:29;12.30;;;8.73;;
20084;SDS011;10202;48.474;9.138;2023-02-28T14:12:44;16.83;;;9.03;;
20084;SDS011;10202;48.474;9.138;2023-02-28T14:17:55;13.73;;;9.17;;
20084;SDS011;10202;48.474;9.138;2023-02-28T14:20:29;17.27;;;10.07;;
20084;SDS011;10202;48.474;9.138;2023-02-28T14:31:13;17.97;;;8.50;;
20084;SDS011;10202;48.474;9.138;2023-02-28T14:36:47;14.97;;;8.73;;
20084;SDS011;10202;48.474;9.138;2023-02-28T14:39:25;14.83;;;8.70;;
20084;SDS011;10202;48.474;9.138;2023-02-28T14:41:56;13.93;;;8.27;;
20084;SDS011;10202;48.474;9.138;2023-02-28T14:44:28;14.97;;;8.30;;
20084;SDS011;10202;48.474;9.138;2023-02-28T14:46:57;15.07;;;9.03;;
20084;SDS011;10202;48.474;9.138;2023-02-28T14:49:43;15.50;;;7.70;;
20084;SDS011;10202;48.474;9.138;2023-02-28T14:54:46;14.20;;;8.47;;
20084;SDS011;10202;48.474;9.138;2023-02-28T14:57:27;13.23;;;8.03;;
20084;SDS011;10202;48.474;9.138;2023-02-28T15:00:03;11.87;;;7.93;;
20084;SDS011;10202;48.474;9.138;2023-02-28T15:02:35;12.87;;;8.40;;
20084;SDS011;10202;48.474;9.138;2023-02-28T15:05:18;12.33;;;7.60;;
20084;SDS011;10202;48.474;9.138;2023-02-28T15:08:00;11.27;;;7.97;;
20084;SDS011;10202;48.474;9.138;2023-02-28T15:10:42;11.17;;;7.87;;
20084;SDS011;10202;48.474;9.138;2023-02-28T15:13:19;16.40;;;8.33;;
20084;SDS011;10202;48.474;9.138;2023-02-28T15:21:21;11.30;;;7.73;;
20084;SDS011;10202;48.474;9.138;2023-02-28T15:23:53;10.73;;;7.90;;
20084;SDS011;10202;48.474;9.138;2023-02-28T15:26:25;11.77;;;8.07;;
20084;SDS011;10202;48.474;9.138;2023-02-28T15:29:02;13.93;;;8.10;;
20084;SDS011;10202;48.474;9.138;2023-02-28T15:31:33;12.23;;;8.37;;
20084;SDS011;10202;48.474;9.138;2023-02-28T15:45:36;15.30;;;8.40;;
20084;SDS011;10202;48.474;9.138;2023-02-28T15:50:51;13.50;;;8.30;;
20084;SDS011;10202;48.474;9.138;2023-02-28T15:53:46;12.83;;;8.10;;
20084;SDS011;10202;48.474;9.138;2023-02-28T15:56:31;13.97;;;8.60;;
20084;SDS011;10202;48.474;9.138;2023-02-28T15:59:01;11.93;;;7.97;;
20084;SDS011;10202;48.474;9.138;2023-02-28T16:01:33;13.63;;;8.47;;
20084;SDS011;10202;48.474;9.138;2023-02-28T16:04:13;11.97;;;8.60;;
20084;SDS011;10202;48.474;9.138;2023-02-28T16:07:00;12.03;;;8.23;;
20084;SDS011;10202;48.474;9.138;2023-02-28T16:09:28;10.93;;;7.87;;
20084;SDS011;10202;48.474;9.138;2023-02-28T16:11:59;13.40;;;8.50;;
20084;SDS011;10202;48.474;9.138;2023-02-28T16:14:28;12.43;;;8.50;;
20084;SDS011;10202;48.474;9.138;2023-02-28T16:17:04;16.17;;;8.67;;
20084;SDS011;10202;48.474;9.138;2023-02-28T16:19:37;14.80;;;8.83;;
20084;SDS011;10202;48.474;9.138;2023-02-28T16:22:05;17.37;;;8.77;;
20084;SDS011;10202;48.474;9.138;2023-02-28T16:24:34;11.97;;;8.47;;
20084;SDS011;10202;48.474;9.138;2023-02-28T16:27:03;16.73;;;9.67;;
20084;SDS011;10202;48.474;9.138;2023-02-28T16:29:31;13.33;;;9.17;;
20084;SDS011;10202;48.474;9.138;2023-02-28T16:32:04;15.50;;;9.40;;
20084;SDS011;10202;48.474;9.138;2023-02-28T16:34:30;14.13;;;8.67;;
20084;SDS011;10202;48.474;9.138;2023-02-28T16:36:59;17.63;;;9.93;;
20084;SDS011;10202;48.474;9.138;2023-02-28T16:39:27;12.90;;;9.20;;
20084;SDS011;10202;48.474;9.138;2023-02-28T16:41:53;16.43;;;9.73;;
20084;SDS011;10202;48.474;9.138;2023-02-28T16:44:26;16.37;;;9.77;;
20084;SDS011;10202;48.474;9.138;2023-02-28T16:46:59;14.30;;;9.30;;
20084;SDS011;10202;48.474;9.138;2023-02-28T16:49:29;17.80;;;9.43;;
20084;SDS011;10202;48.474;9.138;2023-02-28T16:51:55;12.07;;;8.37;;
20084;SDS011;10202;48.474;9.138;2023-02-28T16:54:23;15.80;;;8.87;;
20084;SDS011;10202;48.474;9.138;2023-02-28T16:56:49;12.67;;;8.43;;
20084;SDS011;10202;48.474;9.138;2023-02-28T16:59:24;14.77;;;9.00;;
20084;SDS011;10202;48.474;9.138;2023-02-28T17:01:50;15.03;;;9.53;;
20084;SDS011;10202;48.474;9.138;2023-02-28T17:04:18;15.33;;;9.83;;
20084;SDS011;10202;48.474;9.138;2023-02-28T17:06:44;17.27;;;10.77;;
20084;SDS011;10202;48.474;9.138;2023-02-28T17:09:16;21.23;;;11.43;;
20084;SDS011;10202;48.474;9.138;2023-02-28T17:11:51;37.17;;;16.80;;
20084;SDS011;10202;48.474;9.138;2023-02-28T17:14:17;33.13;;;17.17;;
20084;SDS011;10202;48.474;9.138;2023-02-28T17:16:44;27.27;;;16.20;;
20084;SDS011;10202;48.474;9.138;2023-02-28T17:19:13;16.90;;;11.43;;
20084;SDS011;10202;48.474;9.138;2023-02-28T17:21:43;22.07;;;11.37;;
20084;SDS011;10202;48.474;9.138;2023-02-28T17:24:10;18.47;;;10.80;;
20084;SDS011;10202;48.474;9.138;2023-02-28T17:26:40;19.63;;;11.03;;
20084;SDS011;10202;48.474;9.138;2023-02-28T17:29:19;20.30;;;11.00;;
20084;SDS011;10202;48.474;9.138;2023-02-28T17:31:46;28.40;;;15.33;;
20084;SDS011;10202;48.474;9.138;2023-02-28T17:34:20;24.20;;;13.80;;
20084;SDS011;10202;48.474;9.138;2023-02-28T17:36:47;17.33;;;11.27;;
20084;SDS011;10202;48.474;9.138;2023-02-28T17:39:17;16.17;;;10.90;;
20084;SDS011;10202;48.474;9.138;2023-02-28T17:41:55;18.60;;;10.93;;
20084;SDS011;10202;48.474;9.138;2023-02-28T17:44:22;17.70;;;10.97;;
20084;SDS011;10202;48.474;9.138;2023-02-28T17:46:51;100.13;;;25.23;;
20084;SDS011;10202;48.474;9.138;2023-02-28T17:49:22;64.37;;;19.77;;
20084;SDS011;10202;48.474;9.138;2023-02-28T17:51:50;37.60;;;15.57;;
20084;SDS011;10202;48.474;9.138;2023-02-28T17:54:15;28.43;;;13.93;;
20084;SDS011;10202;48.474;9.138;2023-02-28T17:56:43;25.20;;;12.40;;
20084;SDS011;10202;48.474;9.138;2023-02-28T17:59:09;19.10;;;11.77;;
20084;SDS011;10202;48.474;9.138;2023-02-28T18:01:38;20.20;;;12.73;;
20084;SDS011;10202;48.474;9.138;2023-02-28T18:04:06;31.80;;;16.70;;
20084;SDS011;10202;48.474;9.138;2023-02-28T18:06:36;31.47;;;15.17;;